Time;durP1;ratioP1;P1;durP2;ratioP2;P2;SDS_P1;SDS_P2;PMS_P1;PMS_P2;Temp;Humidity;BMP_temperature;BMP_pressure;BME280_temperature;BME280_humidity;BME280_pressure;Samples;Min_cycle;Max_cycle;Signal;HPM_P1;HPM_P2
2024/01/31 00:00:30;;;;;;;1.80;1.30;;;24.70;54.50;;;;;;5089311;28;20489;-89
2024/01/31 00:02:57;;;;;;;2.67;1.20;;;24.70;54.50;;;;;;5090396;28;20964;-87
2024/01/31 00:05:24;;;;;;;2.03;1.20;;;24.70;54.50;;;;;;5092410;28;20548;-88
2024/01/31 00:07:51;;;;;;;1.80;1.10;;;24.60;54.40;;;;;;5089173;28;20455;-88
2024/01/31 00:10:19;;;;;;;3.10;1.40;;;24.70;55.00;;;;;;5091265;28;20538;-87
2024/01/31 00:12:46;;;;;;;2.43;1.20;;;24.70;54.50;;;;;;5091050;28;20531;-88
2024/01/31 00:15:13;;;;;;;1.70;1.10;;;24.60;54.40;;;;;;5091467;28;20542;-87
2024/01/31 00:17:41;;;;;;;2.00;1.30;;;24.60;54.40;;;;;;5092414;28;20455;-87
2024/01/31 00:20:08;;;;;;;1.70;1.10;;;24.60;54.50;;;;;;5092804;28;20977;-87
2024/01/31 00:22:35;;;;;;;2.00;1.30;;;24.60;54.40;;;;;;5092908;28;20465;-88
2024/01/31 00:25:03;;;;;;;1.80;1.00;;;24.60;54.40;;;;;;5091765;28;20448;-87
2024/01/31 00:27:31;;;;;;;1.70;1.20;;;24.60;54.40;;;;;;5094419;28;20440;-85
2024/01/31 00:29:58;;;;;;;2.07;1.30;;;24.50;54.30;;;;;;5096678;28;20762;-85
2024/01/31 00:32:25;;;;;;;1.83;1.07;;;24.50;54.30;;;;;;5095942;28;20956;-86
2024/01/31 00:34:52;;;;;;;2.10;1.00;;;24.50;54.30;;;;;;5095419;28;20432;-87
2024/01/31 00:37:18;;;;;;;1.80;1.00;;;24.50;54.30;;;;;;5093260;28;20523;-87
2024/01/31 00:39:48;;;;;;;1.93;1.13;;;24.50;54.40;;;;;;5095262;28;20977;-87
2024/01/31 00:42:14;;;;;;;2.60;0.97;;;24.50;54.40;;;;;;5074280;28;20458;-87
2024/01/31 00:44:43;;;;;;;1.97;1.10;;;24.50;54.40;;;;;;5074799;28;20433;-87
2024/01/31 00:47:09;;;;;;;1.70;0.93;;;24.50;54.40;;;;;;5075424;28;20437;-88
2024/01/31 00:49:36;;;;;;;1.67;1.10;;;24.50;54.40;;;;;;5075748;28;20793;-87
2024/01/31 00:52:03;;;;;;;1.70;1.00;;;24.50;54.40;;;;;;5074992;28;20748;-87
2024/01/31 00:54:30;;;;;;;1.70;1.17;;;24.50;54.40;;;;;;5074200;28;20516;-87
2024/01/31 00:56:57;;;;;;;1.60;1.20;;;24.40;54.30;;;;;;5073825;28;20531;-87
2024/01/31 00:59:24;;;;;;;1.70;1.00;;;24.40;54.40;;;;;;5073563;28;20527;-87
2024/01/31 01:01:53;;;;;;;2.23;1.20;;;24.40;54.40;;;;;;5073847;28;20459;-88
2024/01/31 01:04:20;;;;;;;2.13;1.03;;;24.40;54.40;;;;;;5074036;28;20444;-86
2024/01/31 01:06:46;;;;;;;1.90;1.07;;;24.40;54.40;;;;;;5074480;28;20433;-87
2024/01/31 01:09:13;;;;;;;1.70;1.10;;;24.40;54.40;;;;;;5075491;28;20436;-87
2024/01/31 01:11:40;;;;;;;1.70;1.10;;;24.40;54.40;;;;;;5075627;28;20544;-86
2024/01/31 01:14:07;;;;;;;3.03;1.10;;;24.40;54.40;;;;;;5075250;28;20941;-87
2024/01/31 01:16:34;;;;;;;1.70;1.10;;;24.40;54.40;;;;;;5075260;28;20443;-87
2024/01/31 01:19:03;;;;;;;1.70;1.10;;;24.40;54.40;;;;;;5075301;28;20432;-87
2024/01/31 01:21:30;;;;;;;1.90;1.13;;;24.40;54.40;;;;;;5075516;28;20488;-86
2024/01/31 01:23:57;;;;;;;1.87;1.20;;;24.30;54.40;;;;;;5075023;28;20812;-86
2024/01/31 01:26:23;;;;;;;1.97;1.10;;;24.30;54.30;;;;;;5075299;28;20814;-86
2024/01/31 01:28:50;;;;;;;1.70;1.10;;;24.30;54.40;;;;;;5074867;28;20462;-87
2024/01/31 01:31:18;;;;;;;1.93;1.30;;;24.30;54.40;;;;;;5075058;28;20444;-87
2024/01/31 01:33:45;;;;;;;2.90;1.00;;;24.30;54.40;;;;;;5075034;28;20868;-86
2024/01/31 01:36:16;;;;;;;1.77;1.03;;;24.30;54.40;;;;;;5088491;28;20538;-85
2024/01/31 01:38:42;;;;;;;1.90;1.10;;;24.20;54.30;;;;;;5092357;28;20546;-85
2024/01/31 01:41:09;;;;;;;1.83;1.20;;;24.30;54.50;;;;;;5093909;28;20494;-86
2024/01/31 01:43:36;;;;;;;1.97;1.20;;;24.30;54.50;;;;;;5095535;28;20435;-89
2024/01/31 01:46:09;;;;;;;1.93;1.23;;;24.20;54.40;;;;;;5095331;28;20797;-89
2024/01/31 01:48:36;;;;;;;1.60;1.10;;;24.20;55.00;;;;;;5095525;28;20436;-87
2024/01/31 01:51:04;;;;;;;1.60;1.00;;;24.20;54.40;;;;;;5095398;28;20442;-87
2024/01/31 01:53:35;;;;;;;2.57;1.23;;;24.20;54.40;;;;;;5094806;28;20479;-86
2024/01/31 01:56:03;;;;;;;3.20;1.10;;;24.20;54.40;;;;;;5095423;28;20435;-86
2024/01/31 01:58:31;;;;;;;1.60;1.10;;;24.20;54.40;;;;;;5094814;28;20456;-88
2024/01/31 02:01:00;;;;;;;1.80;1.20;;;24.30;54.50;;;;;;5094961;28;20491;-87
2024/01/31 02:03:28;;;;;;;1.97;1.00;;;24.30;54.50;;;;;;5095125;28;20443;-87
2024/01/31 02:05:56;;;;;;;2.33;1.10;;;24.20;54.40;;;;;;5094679;28;20439;-88
2024/01/31 02:08:24;;;;;;;2.00;1.20;;;24.30;54.40;;;;;;5094600;28;20456;-87
2024/01/31 02:10:52;;;;;;;1.60;1.00;;;24.20;54.30;;;;;;5094893;28;20443;-87
2024/01/31 02:13:18;;;;;;;1.70;1.10;;;24.30;54.40;;;;;;5095502;28;20444;-87
2024/01/31 02:15:52;;;;;;;1.60;1.07;;;24.30;54.30;;;;;;5094567;28;20435;-88
2024/01/31 02:18:19;;;;;;;2.07;1.13;;;24.30;54.30;;;;;;5095086;28;20439;-87
2024/01/31 02:20:45;;;;;;;2.50;1.40;;;24.30;54.30;;;;;;5094919;28;20487;-88
2024/01/31 02:23:15;;;;;;;1.60;1.00;;;24.30;54.30;;;;;;5094855;28;20439;-86
2024/01/31 02:25:42;;;;;;;2.20;1.17;;;24.30;54.30;;;;;;5094640;28;20439;-87
2024/01/31 02:28:09;;;;;;;1.73;1.00;;;24.30;54.20;;;;;;5094345;28;20506;-85
2024/01/31 02:30:36;;;;;;;1.67;1.13;;;24.30;54.20;;;;;;5113637;28;20511;-88
2024/01/31 02:33:03;;;;;;;1.60;1.00;;;24.30;54.20;;;;;;5119256;28;20466;-88
2024/01/31 02:35:32;;;;;;;2.13;1.10;;;24.30;54.20;;;;;;5105059;28;20527;-87
2024/01/31 02:37:58;;;;;;;1.77;1.10;;;24.30;54.20;;;;;;5094293;28;20439;-87
2024/01/31 02:40:26;;;;;;;1.60;1.10;;;24.30;54.20;;;;;;5094310;28;20503;-87
2024/01/31 02:42:53;;;;;;;1.67;1.00;;;24.30;54.20;;;;;;5093664;28;20519;-87
2024/01/31 02:45:20;;;;;;;1.70;0.90;;;24.30;54.20;;;;;;5094276;28;20439;-87
2024/01/31 02:47:50;;;;;;;2.03;1.00;;;24.30;54.20;;;;;;5094259;28;20446;-87
2024/01/31 02:50:16;;;;;;;1.70;0.97;;;24.30;54.20;;;;;;5094307;28;20840;-87
2024/01/31 02:52:44;;;;;;;1.70;0.90;;;24.30;54.20;;;;;;5094584;28;20565;-87
2024/01/31 02:55:11;;;;;;;1.93;1.00;;;24.30;54.10;;;;;;5093913;28;20437;-87
2024/01/31 02:57:39;;;;;;;1.60;1.03;;;24.30;54.10;;;;;;5094231;28;20456;-87
2024/01/31 03:00:11;;;;;;;1.80;1.20;;;24.30;54.10;;;;;;5094038;28;20484;-87
2024/01/31 03:02:38;;;;;;;1.70;0.90;;;24.30;54.10;;;;;;5094078;28;20428;-87
2024/01/31 03:05:06;;;;;;;1.67;1.17;;;24.30;54.20;;;;;;5094295;28;20439;-87
2024/01/31 03:07:32;;;;;;;1.90;1.10;;;24.30;54.10;;;;;;5093741;28;20440;-88
2024/01/31 03:09:59;;;;;;;2.13;1.00;;;24.30;54.10;;;;;;5093645;28;20997;-87
2024/01/31 03:12:27;;;;;;;1.60;0.90;;;24.30;54.10;;;;;;5093883;28;20439;-87
2024/01/31 03:14:55;;;;;;;1.60;0.90;;;24.30;54.10;;;;;;5093938;28;20833;-87
2024/01/31 03:17:22;;;;;;;1.63;1.30;;;24.30;54.10;;;;;;5094137;28;20442;-87
2024/01/31 03:19:49;;;;;;;1.50;0.90;;;24.30;54.10;;;;;;5093993;28;20474;-87
2024/01/31 03:22:16;;;;;;;1.70;0.97;;;24.30;54.10;;;;;;5093698;28;21074;-88
2024/01/31 03:24:42;;;;;;;1.60;1.10;;;24.30;54.00;;;;;;5093543;28;20915;-87
2024/01/31 03:27:09;;;;;;;1.60;1.00;;;24.30;54.00;;;;;;5093667;28;20463;-87
2024/01/31 03:29:36;;;;;;;1.60;0.90;;;24.30;54.00;;;;;;5093640;28;20534;-87
2024/01/31 03:32:05;;;;;;;1.83;1.03;;;24.30;54.00;;;;;;5093477;28;20436;-87
2024/01/31 03:34:32;;;;;;;1.50;0.90;;;24.30;54.00;;;;;;5093360;28;20448;-85
2024/01/31 03:37:02;;;;;;;2.23;1.00;;;24.20;53.90;;;;;;5092976;28;20628;-87
2024/01/31 03:39:29;;;;;;;1.50;0.90;;;24.20;54.00;;;;;;5091640;28;20452;-87
2024/01/31 03:41:56;;;;;;;1.73;0.90;;;24.30;54.00;;;;;;5092465;28;21005;-87
2024/01/31 03:44:23;;;;;;;2.33;0.90;;;24.30;53.90;;;;;;5092721;28;20534;-87
2024/01/31 03:46:49;;;;;;;1.80;0.80;;;24.30;54.00;;;;;;5092788;28;20450;-87
2024/01/31 03:49:18;;;;;;;1.80;1.10;;;24.30;53.90;;;;;;5093154;28;20446;-87
2024/01/31 03:51:45;;;;;;;1.77;1.00;;;24.40;54.00;;;;;;5102495;28;20475;-87
2024/01/31 03:54:11;;;;;;;1.87;1.00;;;24.30;54.00;;;;;;5102367;28;20439;-87
2024/01/31 03:56:38;;;;;;;2.07;1.10;;;24.30;54.00;;;;;;5104366;28;20442;-86
2024/01/31 03:59:05;;;;;;;1.50;0.80;;;24.20;53.90;;;;;;5091741;28;20561;-88
2024/01/31 04:01:32;;;;;;;1.60;0.90;;;24.20;53.90;;;;;;5092373;28;20506;-86
2024/01/31 04:03:59;;;;;;;1.40;0.80;;;24.20;53.90;;;;;;5095425;28;20446;-87
2024/01/31 04:06:27;;;;;;;1.50;0.70;;;24.30;54.00;;;;;;5096542;28;20879;-87
2024/01/31 04:08:53;;;;;;;1.60;0.77;;;24.20;53.90;;;;;;5098053;28;20446;-87
2024/01/31 04:11:20;;;;;;;1.60;0.90;;;24.20;53.90;;;;;;5097399;28;20443;-87
2024/01/31 04:13:47;;;;;;;2.53;1.07;;;24.20;53.80;;;;;;5096857;28;20435;-87
2024/01/31 04:16:17;;;;;;;1.60;1.00;;;24.20;53.80;;;;;;5096663;28;20436;-88
2024/01/31 04:18:44;;;;;;;1.50;0.80;;;24.30;53.90;;;;;;5096941;28;20427;-87
2024/01/31 04:21:11;;;;;;;1.93;1.00;;;24.20;53.80;;;;;;5096864;28;20486;-86
2024/01/31 04:23:39;;;;;;;1.50;0.80;;;24.30;53.80;;;;;;5096617;28;20849;-86
2024/01/31 04:26:06;;;;;;;1.70;0.90;;;24.30;53.90;;;;;;5098278;28;20439;-87
2024/01/31 04:28:33;;;;;;;1.40;0.70;;;24.20;53.80;;;;;;5096571;28;20452;-89
2024/01/31 04:30:59;;;;;;;1.60;0.80;;;24.20;53.80;;;;;;5096690;28;21022;-87
2024/01/31 04:33:26;;;;;;;1.40;0.80;;;24.20;53.80;;;;;;5096329;28;20481;-87
2024/01/31 04:35:53;;;;;;;2.20;1.00;;;24.20;53.80;;;;;;5096658;28;20431;-87
2024/01/31 04:38:20;;;;;;;1.40;0.80;;;24.20;53.90;;;;;;5096930;28;20821;-87
2024/01/31 04:40:48;;;;;;;1.90;0.90;;;24.20;53.80;;;;;;5096293;28;20438;-88
2024/01/31 04:43:17;;;;;;;2.47;0.90;;;24.20;53.80;;;;;;5096301;28;20443;-88
2024/01/31 04:45:44;;;;;;;1.60;0.90;;;24.20;53.80;;;;;;5096255;28;20447;-88
2024/01/31 04:48:11;;;;;;;1.40;0.80;;;24.20;53.80;;;;;;5095953;28;20482;-87
2024/01/31 04:50:38;;;;;;;1.50;0.80;;;24.20;53.80;;;;;;5096282;28;20542;-88
2024/01/31 04:53:05;;;;;;;1.40;0.90;;;24.20;53.80;;;;;;5095892;28;20475;-87
2024/01/31 04:55:32;;;;;;;1.40;0.77;;;24.20;54.30;;;;;;5096253;28;20968;-88
2024/01/31 04:58:00;;;;;;;1.67;0.90;;;24.20;53.70;;;;;;5096066;28;20475;-88
2024/01/31 05:00:28;;;;;;;1.70;1.00;;;24.20;53.70;;;;;;5096097;28;20519;-87
2024/01/31 05:02:54;;;;;;;1.50;0.70;;;24.20;53.70;;;;;;5095891;28;20483;-87
2024/01/31 05:05:21;;;;;;;1.70;0.90;;;24.20;53.70;;;;;;5095974;28;20522;-87
2024/01/31 05:07:48;;;;;;;1.40;0.70;;;24.20;53.70;;;;;;5095719;28;20522;-86
2024/01/31 05:10:15;;;;;;;2.90;0.80;;;24.20;53.70;;;;;;5095936;28;20527;-87
2024/01/31 05:12:42;;;;;;;1.50;0.80;;;24.20;53.70;;;;;;5095569;28;20442;-88
2024/01/31 05:15:10;;;;;;;1.40;0.80;;;24.20;53.60;;;;;;5095775;28;20463;-87
2024/01/31 05:17:37;;;;;;;1.70;0.80;;;24.20;53.60;;;;;;5095643;28;20462;-88
2024/01/31 05:20:05;;;;;;;2.33;1.00;;;24.30;54.30;;;;;;5095779;28;20436;-88
2024/01/31 05:22:32;;;;;;;1.43;0.73;;;24.30;53.70;;;;;;5095415;28;20501;-88
2024/01/31 05:24:58;;;;;;;1.50;0.80;;;24.30;53.70;;;;;;5095655;28;20515;-88
2024/01/31 05:27:25;;;;;;;1.40;0.80;;;24.40;53.80;;;;;;5095402;28;20842;-87
2024/01/31 05:29:52;;;;;;;1.50;0.83;;;24.30;53.70;;;;;;5095482;28;20523;-87
2024/01/31 05:32:20;;;;;;;1.50;0.73;;;24.30;53.60;;;;;;5095450;28;20453;-87
2024/01/31 05:34:48;;;;;;;1.40;0.80;;;24.30;53.60;;;;;;5095291;28;20447;-87
2024/01/31 05:37:15;;;;;;;1.40;0.70;;;24.30;53.60;;;;;;5099541;28;20478;-87
2024/01/31 05:39:42;;;;;;;1.40;0.83;;;24.30;53.60;;;;;;5097247;28;20550;-87
2024/01/31 05:42:09;;;;;;;1.60;0.80;;;24.30;53.50;;;;;;5096382;28;20498;-87
2024/01/31 05:44:38;;;;;;;1.37;0.70;;;24.30;53.60;;;;;;5095902;28;20440;-87
2024/01/31 05:47:05;;;;;;;1.70;0.70;;;24.30;53.60;;;;;;5116362;28;20436;-90
2024/01/31 05:49:33;;;;;;;1.70;0.87;;;24.30;53.60;;;;;;5119589;28;20458;-89
2024/01/31 05:52:00;;;;;;;1.40;0.70;;;24.30;53.50;;;;;;5100091;28;20488;-87
2024/01/31 05:54:27;;;;;;;1.40;0.73;;;24.30;53.50;;;;;;5095247;28;20538;-89
2024/01/31 05:56:54;;;;;;;1.70;0.80;;;24.40;53.50;;;;;;5094967;28;20464;-89
2024/01/31 05:59:21;;;;;;;1.37;0.70;;;24.40;53.50;;;;;;5095193;28;20442;-88
2024/01/31 06:01:47;;;;;;;1.60;0.90;;;24.40;53.50;;;;;;5095234;28;20502;-87
2024/01/31 06:04:14;;;;;;;1.50;1.03;;;24.30;53.50;;;;;;5097258;28;20452;-87
2024/01/31 06:06:42;;;;;;;1.50;0.80;;;24.40;53.60;;;;;;5096307;28;20435;-85
2024/01/31 06:09:11;;;;;;;1.50;0.70;;;24.30;53.50;;;;;;5095449;28;20439;-85
2024/01/31 06:11:38;;;;;;;1.40;0.80;;;24.30;54.10;;;;;;5096070;28;20440;-86
2024/01/31 06:14:06;;;;;;;1.40;0.80;;;24.40;53.50;;;;;;5095909;28;20446;-86
2024/01/31 06:16:33;;;;;;;1.50;0.70;;;24.40;53.50;;;;;;5096452;28;20440;-88
2024/01/31 06:19:01;;;;;;;1.57;0.90;;;24.30;53.40;;;;;;5094766;28;20439;-86
2024/01/31 06:21:28;;;;;;;1.67;0.73;;;24.40;53.60;;;;;;5094660;28;20577;-87
2024/01/31 06:23:57;;;;;;;1.40;0.80;;;24.40;53.50;;;;;;5094459;28;20534;-86
2024/01/31 06:26:24;;;;;;;1.50;0.90;;;24.30;53.50;;;;;;5094508;28;20444;-86
2024/01/31 06:28:51;;;;;;;1.40;0.70;;;24.30;53.40;;;;;;5094259;28;20490;-87
2024/01/31 06:31:25;;;;;;;1.70;0.70;;;24.30;53.50;;;;;;5094502;28;20447;-86
2024/01/31 06:33:52;;;;;;;1.40;0.70;;;24.40;53.50;;;;;;5094931;28;20440;-87
2024/01/31 06:36:19;;;;;;;1.40;0.80;;;24.40;53.50;;;;;;5094325;28;20446;-86
2024/01/31 06:38:46;;;;;;;1.77;0.80;;;24.40;53.50;;;;;;5094393;28;20998;-86
2024/01/31 06:41:15;;;;;;;1.40;0.70;;;24.40;53.40;;;;;;5094384;28;20450;-86
2024/01/31 06:43:42;;;;;;;1.50;0.80;;;24.40;53.50;;;;;;5094430;28;20785;-85
2024/01/31 06:46:09;;;;;;;2.57;1.10;;;24.40;53.50;;;;;;5076587;28;20476;-85
2024/01/31 06:48:35;;;;;;;2.67;0.93;;;24.40;53.40;;;;;;5094134;28;20439;-85
2024/01/31 06:51:02;;;;;;;1.60;0.90;;;24.40;53.40;;;;;;5093906;28;20440;-87
2024/01/31 06:53:29;;;;;;;5.33;0.83;;;24.50;53.50;;;;;;5094002;28;20805;-87
2024/01/31 06:55:56;;;;;;;1.40;0.70;;;24.40;53.50;;;;;;5093815;28;20440;-86
2024/01/31 06:58:24;;;;;;;1.40;0.70;;;24.40;53.50;;;;;;5093616;28;20470;-88
2024/01/31 07:00:54;;;;;;;1.57;0.80;;;24.50;53.40;;;;;;5094118;28;20443;-86
2024/01/31 07:03:20;;;;;;;1.50;0.73;;;24.50;52.80;;;;;;5093943;28;20516;-86
2024/01/31 07:05:47;;;;;;;1.50;0.90;;;24.40;53.20;;;;;;5094023;28;20442;-87
2024/01/31 07:08:14;;;;;;;2.80;0.90;;;24.40;53.30;;;;;;5093796;28;20466;-86
2024/01/31 07:10:41;;;;;;;1.90;1.17;;;24.40;53.40;;;;;;5093980;28;20448;-86
2024/01/31 07:13:08;;;;;;;2.37;0.80;;;24.40;53.40;;;;;;5094070;28;20432;-86
2024/01/31 07:15:36;;;;;;;8.13;1.00;;;24.40;53.40;;;;;;5093877;28;20875;-86
2024/01/31 07:18:03;;;;;;;1.70;0.97;;;24.30;53.40;;;;;;5093675;28;20435;-86
2024/01/31 07:20:30;;;;;;;1.90;0.90;;;24.40;53.50;;;;;;5093874;28;20442;-86
2024/01/31 07:22:57;;;;;;;2.93;0.83;;;24.40;53.50;;;;;;5093767;28;20574;-86
2024/01/31 07:25:24;;;;;;;2.60;1.17;;;24.40;53.50;;;;;;5094501;28;20444;-86
2024/01/31 07:27:51;;;;;;;3.10;0.90;;;24.40;53.40;;;;;;5093535;28;20546;-86
2024/01/31 07:30:20;;;;;;;2.33;0.80;;;24.40;53.50;;;;;;5094551;28;20517;-86
2024/01/31 07:32:48;;;;;;;4.90;0.90;;;24.40;53.40;;;;;;5096445;28;20476;-86
2024/01/31 07:35:15;;;;;;;3.10;0.90;;;24.40;53.50;;;;;;5094593;28;20442;-87
2024/01/31 07:37:42;;;;;;;1.57;0.80;;;24.40;53.50;;;;;;5096553;28;20447;-87
2024/01/31 07:40:10;;;;;;;1.93;1.17;;;24.40;53.50;;;;;;5098127;28;20804;-85
2024/01/31 07:42:37;;;;;;;2.60;0.70;;;24.40;53.50;;;;;;5097684;28;20508;-86
2024/01/31 07:45:05;;;;;;;1.50;0.80;;;24.40;53.30;;;;;;5097675;28;20479;-87
2024/01/31 07:47:32;;;;;;;1.83;0.80;;;24.40;53.60;;;;;;5097355;28;20447;-86
2024/01/31 07:50:00;;;;;;;4.00;0.90;;;24.30;53.50;;;;;;5097427;28;20521;-86
2024/01/31 07:52:27;;;;;;;3.60;1.00;;;24.30;53.70;;;;;;5097063;28;20521;-86
2024/01/31 07:54:53;;;;;;;2.43;1.10;;;24.40;53.70;;;;;;5097685;28;20439;-86
2024/01/31 07:57:20;;;;;;;3.20;1.47;;;24.40;53.80;;;;;;5097388;28;20451;-86
2024/01/31 07:59:47;;;;;;;7.73;1.23;;;24.40;53.70;;;;;;5097356;28;20436;-86
2024/01/31 08:02:14;;;;;;;2.00;0.80;;;24.40;53.80;;;;;;5097256;28;20837;-85
2024/01/31 08:04:41;;;;;;;2.30;1.00;;;24.40;53.70;;;;;;5097536;28;20435;-87
2024/01/31 08:07:11;;;;;;;3.50;1.30;;;24.40;53.70;;;;;;5097534;28;20450;-87
2024/01/31 08:09:39;;;;;;;5.33;1.03;;;24.40;53.70;;;;;;5097466;28;20440;-86
2024/01/31 08:12:07;;;;;;;3.73;1.40;;;24.40;53.80;;;;;;5099509;28;20471;-86
2024/01/31 08:14:34;;;;;;;2.13;1.23;;;24.40;54.40;;;;;;5102448;28;20503;-86
2024/01/31 08:17:01;;;;;;;4.80;1.60;;;24.50;53.90;;;;;;5102457;28;20449;-85
2024/01/31 08:19:28;;;;;;;1.90;1.23;;;24.40;53.80;;;;;;5103441;28;20443;-86
2024/01/31 08:21:55;;;;;;;1.70;1.10;;;24.40;53.80;;;;;;5103208;28;20446;-87
2024/01/31 08:24:23;;;;;;;2.50;1.30;;;24.40;53.80;;;;;;5104568;28;20454;-84
2024/01/31 08:26:51;;;;;;;5.80;2.43;;;24.40;53.90;;;;;;5100023;28;20550;-86
2024/01/31 08:29:18;;;;;;;8.80;3.20;;;24.40;53.30;;;;;;5101822;28;20435;-86
2024/01/31 08:31:47;;;;;;;5.80;3.00;;;24.40;53.20;;;;;;5101637;28;20482;-87
2024/01/31 08:34:17;;;;;;;10.80;2.87;;;24.30;53.00;;;;;;5101323;28;20475;-88
2024/01/31 08:36:45;;;;;;;5.10;2.87;;;24.30;53.50;;;;;;5101523;28;20538;-87
2024/01/31 08:39:12;;;;;;;12.83;3.50;;;24.20;53.10;;;;;;5103348;28;20935;-88
2024/01/31 08:41:44;;;;;;;7.30;3.20;;;24.20;53.10;;;;;;5103484;28;20435;-88
2024/01/31 08:44:12;;;;;;;9.97;2.87;;;24.30;53.80;;;;;;5101411;28;20483;-88
2024/01/31 08:46:39;;;;;;;9.43;3.00;;;24.20;53.50;;;;;;5102516;28;20471;-88
2024/01/31 08:49:05;;;;;;;13.43;2.93;;;24.30;53.70;;;;;;5101417;28;20447;-88
2024/01/31 08:51:35;;;;;;;8.33;2.90;;;24.30;53.70;;;;;;5102013;28;20467;-88
2024/01/31 08:54:02;;;;;;;7.50;3.00;;;24.30;53.80;;;;;;5101755;28;20504;-89
2024/01/31 08:56:32;;;;;;;5.97;2.80;;;24.30;53.70;;;;;;5103872;28;20407;-90
2024/01/31 08:59:00;;;;;;;7.63;2.50;;;24.30;53.90;;;;;;5102335;28;20892;-90
2024/01/31 09:01:30;;;;;;;6.33;2.40;;;24.30;53.80;;;;;;5101851;28;20950;-90
2024/01/31 09:03:58;;;;;;;8.53;2.57;;;24.40;53.90;;;;;;5101072;28;20486;-89
2024/01/31 09:06:27;;;;;;;8.60;2.43;;;24.30;53.80;;;;;;5124348;23;20464;-89
2024/01/31 09:08:54;;;;;;;6.03;2.20;;;24.40;53.90;;;;;;5143043;22;20510;-89
2024/01/31 09:11:21;;;;;;;5.50;2.27;;;24.50;53.90;;;;;;5108120;28;20527;-90
2024/01/31 09:13:49;;;;;;;9.00;2.33;;;24.40;53.90;;;;;;5102286;28;20975;-90
2024/01/31 09:16:20;;;;;;;5.57;2.10;;;24.40;53.90;;;;;;5099968;28;20493;-84
2024/01/31 09:18:50;;;;;;;7.23;2.73;;;24.40;54.00;;;;;;5101630;28;20446;-89
2024/01/31 09:21:27;;;;;;;7.67;2.30;;;24.40;53.40;;;;;;5078023;22;20485;-88
2024/01/31 09:23:55;;;;;;;8.60;2.10;;;24.50;53.60;;;;;;5061500;28;20488;-88
2024/01/31 09:26:22;;;;;;;7.53;2.53;;;24.40;53.70;;;;;;5060434;28;20822;-89
2024/01/31 09:28:49;;;;;;;4.93;2.43;;;24.40;53.80;;;;;;5061357;28;20441;-88
2024/01/31 09:31:28;;;;;;;9.50;2.30;;;24.40;54.00;;;;;;5061976;28;20449;-88
2024/01/31 09:33:57;;;;;;;3.63;2.27;;;24.40;53.80;;;;;;5060837;28;20476;-88
2024/01/31 09:36:28;;;;;;;7.63;1.97;;;24.50;53.80;;;;;;5061360;28;20520;-89
2024/01/31 09:38:57;;;;;;;5.97;2.17;;;24.40;53.60;;;;;;5059395;28;20451;-89
2024/01/31 09:41:26;;;;;;;6.40;2.13;;;24.40;53.70;;;;;;5056206;28;20441;-89
2024/01/31 09:43:53;;;;;;;5.37;2.00;;;24.40;53.60;;;;;;5055234;28;20476;-88
2024/01/31 09:46:20;;;;;;;5.73;2.20;;;24.40;53.60;;;;;;5056091;28;20448;-89
2024/01/31 09:48:48;;;;;;;9.47;2.30;;;24.40;53.60;;;;;;5055479;28;20464;-89
2024/01/31 09:51:18;;;;;;;6.20;2.00;;;24.40;53.60;;;;;;5055523;28;20433;-89
2024/01/31 09:53:49;;;;;;;4.93;2.27;;;24.40;54.10;;;;;;5055564;28;20441;-89
2024/01/31 09:56:17;;;;;;;6.17;1.80;;;24.40;53.50;;;;;;5055258;28;20924;-89
2024/01/31 09:58:43;;;;;;;6.07;2.30;;;24.40;53.50;;;;;;5054677;28;20444;-88
2024/01/31 10:01:11;;;;;;;6.60;2.60;;;24.50;53.50;;;;;;5055129;28;20451;-88
2024/01/31 10:03:38;;;;;;;7.87;2.17;;;24.40;53.30;;;;;;5055128;28;20489;-88
2024/01/31 10:06:06;;;;;;;4.30;2.10;;;24.40;53.50;;;;;;5054880;28;20441;-88
2024/01/31 10:08:33;;;;;;;8.20;1.93;;;24.40;53.40;;;;;;5055264;28;20503;-88
2024/01/31 10:11:00;;;;;;;4.97;2.23;;;24.40;53.40;;;;;;5055374;28;20540;-89
2024/01/31 10:13:27;;;;;;;5.37;2.17;;;24.50;53.40;;;;;;5055004;28;20441;-88
2024/01/31 10:15:54;;;;;;;7.10;2.10;;;24.50;53.50;;;;;;5054980;28;20444;-88
2024/01/31 10:18:22;;;;;;;6.83;2.50;;;24.50;53.30;;;;;;5036678;28;20442;-88
2024/01/31 10:20:51;;;;;;;3.90;1.60;;;24.50;53.30;;;;;;5054753;28;20530;-88
2024/01/31 10:23:20;;;;;;;5.00;1.70;;;24.50;53.30;;;;;;5054680;28;20473;-88
2024/01/31 10:25:47;;;;;;;7.00;2.40;;;24.50;53.30;;;;;;5054427;28;20541;-88
2024/01/31 10:28:18;;;;;;;5.70;1.53;;;24.50;53.20;;;;;;5054558;28;20465;-88
2024/01/31 10:30:49;;;;;;;4.13;1.53;;;24.50;53.20;;;;;;5059420;28;20483;-89
2024/01/31 10:33:16;;;;;;;2.73;1.60;;;24.50;53.20;;;;;;5059786;28;20449;-89
2024/01/31 10:35:47;;;;;;;5.03;2.17;;;24.50;53.20;;;;;;5059330;28;20884;-88
2024/01/31 10:38:14;;;;;;;4.70;1.77;;;24.50;53.10;;;;;;5060152;28;20458;-89
2024/01/31 10:40:44;;;;;;;6.00;2.00;;;24.50;53.10;;;;;;5061058;28;20442;-89
2024/01/31 10:43:15;;;;;;;5.00;1.73;;;24.50;53.10;;;;;;5059498;28;20481;-88
2024/01/31 10:45:42;;;;;;;4.00;2.00;;;24.50;53.10;;;;;;5063514;28;20455;-87
2024/01/31 10:48:11;;;;;;;6.20;1.47;;;24.50;53.10;;;;;;5062145;28;20819;-88
2024/01/31 10:50:41;;;;;;;4.60;1.37;;;24.50;53.10;;;;;;5059493;28;20477;-87
2024/01/31 10:53:10;;;;;;;5.10;1.63;;;24.50;53.10;;;;;;5058826;28;20485;-88
2024/01/31 10:55:39;;;;;;;6.50;2.10;;;24.50;53.10;;;;;;5057973;28;20532;-88
2024/01/31 10:58:10;;;;;;;4.17;1.47;;;24.50;53.00;;;;;;5077088;22;20570;-88
2024/01/31 11:00:47;;;;;;;5.43;1.50;;;24.50;53.00;;;;;;5100659;28;20412;-88
2024/01/31 11:03:17;;;;;;;4.20;1.60;;;24.60;53.10;;;;;;5098619;28;20463;-87
2024/01/31 11:05:45;;;;;;;5.67;1.50;;;24.50;53.00;;;;;;5097909;28;20440;-87
2024/01/31 11:08:19;;;;;;;4.40;1.33;;;24.50;53.00;;;;;;5110935;28;20518;-88
2024/01/31 11:10:47;;;;;;;2.90;1.40;;;24.60;53.00;;;;;;5098895;28;20465;-88
2024/01/31 11:13:16;;;;;;;6.03;1.57;;;24.60;53.10;;;;;;5098184;28;20503;-88
2024/01/31 11:15:46;;;;;;;2.83;1.50;;;24.60;53.00;;;;;;5099171;28;20443;-88
2024/01/31 11:18:14;;;;;;;4.83;1.73;;;24.60;53.00;;;;;;5098611;28;20424;-89
2024/01/31 11:20:47;;;;;;;2.60;1.60;;;24.60;53.00;;;;;;5099688;28;20949;-88
2024/01/31 11:23:16;;;;;;;2.43;1.60;;;24.60;52.90;;;;;;5080618;28;20475;-88
2024/01/31 11:25:43;;;;;;;3.23;1.40;;;24.60;52.90;;;;;;5099424;28;20446;-88
2024/01/31 11:28:13;;;;;;;2.43;1.20;;;24.60;52.90;;;;;;5099479;28;20466;-88
2024/01/31 11:30:42;;;;;;;3.33;1.27;;;24.60;52.90;;;;;;5100084;28;20444;-88
2024/01/31 11:33:11;;;;;;;4.57;1.40;;;24.60;52.90;;;;;;5248250;22;20491;-88
2024/01/31 11:35:38;;;;;;;3.97;1.40;;;24.70;53.00;;;;;;5098571;28;20436;-84
2024/01/31 11:38:06;;;;;;;4.23;1.53;;;24.60;52.50;;;;;;5098960;28;20437;-85
2024/01/31 11:40:37;;;;;;;3.00;1.20;;;24.50;52.40;;;;;;5340482;22;20449;-89
2024/01/31 11:45:56;;;;;;;5.93;2.00;;;24.50;52.90;;;;;;5224755;22;20950;-89
2024/01/31 11:48:25;;;;;;;6.77;1.80;;;24.50;53.00;;;;;;5039621;28;20541;-88
2024/01/31 11:50:56;;;;;;;7.67;2.20;;;24.50;53.10;;;;;;5038755;28;20454;-88
2024/01/31 11:53:24;;;;;;;11.53;1.73;;;24.50;53.00;;;;;;5035084;28;20437;-87
2024/01/31 11:55:52;;;;;;;6.90;2.20;;;24.50;53.10;;;;;;5033091;28;20462;-88
2024/01/31 11:58:19;;;;;;;10.07;2.47;;;24.60;53.10;;;;;;5033906;28;20482;-88
2024/01/31 12:00:46;;;;;;;6.83;2.03;;;24.60;53.20;;;;;;5033941;28;20435;-88
2024/01/31 12:03:14;;;;;;;5.83;2.30;;;24.50;53.10;;;;;;5033923;28;20513;-89
2024/01/31 12:05:41;;;;;;;6.23;1.97;;;24.60;53.20;;;;;;5033374;28;20438;-88
2024/01/31 12:08:08;;;;;;;9.97;2.43;;;24.50;53.20;;;;;;5035077;28;20445;-87
2024/01/31 12:10:35;;;;;;;14.13;2.40;;;24.60;53.20;;;;;;5033635;28;20445;-88
2024/01/31 12:13:03;;;;;;;8.70;2.03;;;24.60;53.30;;;;;;5033783;28;20446;-88
2024/01/31 12:15:31;;;;;;;7.67;2.40;;;24.60;53.20;;;;;;5033893;28;20999;-88
2024/01/31 12:18:00;;;;;;;6.50;2.50;;;24.60;53.20;;;;;;5034092;28;20454;-88
2024/01/31 12:20:29;;;;;;;8.07;2.13;;;24.60;53.30;;;;;;5034168;28;20949;-87
2024/01/31 12:22:57;;;;;;;15.63;2.70;;;24.60;53.40;;;;;;5036187;28;20476;-88
2024/01/31 12:25:24;;;;;;;18.80;3.00;;;24.60;53.90;;;;;;5037451;28;20485;-89
2024/01/31 12:27:50;;;;;;;9.10;2.37;;;24.60;53.40;;;;;;5036860;28;20466;-88
2024/01/31 12:30:17;;;;;;;10.80;2.80;;;24.60;53.30;;;;;;5052356;28;20497;-90
2024/01/31 12:32:44;;;;;;;9.13;2.30;;;24.60;53.40;;;;;;5060842;28;20456;-88
2024/01/31 12:35:11;;;;;;;15.17;2.50;;;24.60;53.40;;;;;;5053384;28;20454;-88
2024/01/31 12:37:40;;;;;;;11.10;2.10;;;24.60;53.30;;;;;;5036826;28;20914;-89
2024/01/31 12:40:08;;;;;;;14.67;3.60;;;24.60;53.30;;;;;;5036615;28;20448;-89
2024/01/31 12:42:35;;;;;;;24.73;2.97;;;24.60;53.40;;;;;;5036736;28;20444;-89
2024/01/31 12:45:04;;;;;;;13.03;2.77;;;24.60;53.40;;;;;;5048769;28;20473;-89
2024/01/31 12:47:31;;;;;;;12.20;3.10;;;24.60;53.90;;;;;;5057832;28;20446;-88
2024/01/31 12:49:57;;;;;;;10.07;2.87;;;24.70;53.40;;;;;;5060520;28;20435;-88